createdAt,value
2023-04-16T00:01:03.007Z,9.50
2023-04-16T00:03:31.793Z,9.30
2023-04-16T00:06:00.768Z,7.50
2023-04-16T00:08:29.085Z,6.80
2023-04-16T00:10:57.286Z,7.90
2023-04-16T00:13:27.654Z,8.00
2023-04-16T00:15:56.197Z,7.60
2023-04-16T00:18:24.572Z,7.20
2023-04-16T00:20:53.673Z,7.00
2023-04-16T00:23:22.064Z,6.40
2023-04-16T00:25:50.396Z,8.30
2023-04-16T00:28:18.630Z,8.60
2023-04-16T00:30:46.991Z,7.40
2023-04-16T00:33:16.122Z,7.40
2023-04-16T00:35:47.977Z,6.90
2023-04-16T00:38:16.865Z,6.20
2023-04-16T00:40:45.139Z,6.20
2023-04-16T00:43:21.941Z,7.50
2023-04-16T00:45:50.546Z,6.20
2023-04-16T00:48:20.608Z,6.20
2023-04-16T00:50:48.907Z,6.50
2023-04-16T00:53:17.108Z,6.00
2023-04-16T00:55:45.918Z,6.00
2023-04-16T00:58:14.467Z,6.60
2023-04-16T01:00:42.595Z,5.70
2023-04-16T01:03:11.179Z,5.30
2023-04-16T01:05:40.533Z,6.40
2023-04-16T01:08:27.336Z,5.30
2023-04-16T01:10:56.644Z,6.30
2023-04-16T01:13:24.930Z,5.50
2023-04-16T01:15:53.122Z,5.50
2023-04-16T01:18:25.069Z,6.70
2023-04-16T01:20:53.352Z,5.20
2023-04-16T01:23:23.306Z,5.90
2023-04-16T01:25:51.651Z,5.70
2023-04-16T01:28:20.037Z,4.70
2023-04-16T01:30:48.437Z,4.70
2023-04-16T01:33:37.167Z,5.80
2023-04-16T01:36:06.241Z,5.70
2023-04-16T01:38:36.899Z,7.00
2023-04-16T01:41:05.076Z,6.30
2023-04-16T01:43:33.362Z,7.20
2023-04-16T01:46:15.391Z,8.30
2023-04-16T01:48:43.633Z,9.60
2023-04-16T01:51:11.914Z,9.30
2023-04-16T01:53:40.190Z,9.00
2023-04-16T01:56:11.339Z,9.60
2023-04-16T01:58:42.909Z,9.20
2023-04-16T02:01:11.324Z,8.00
2023-04-16T02:03:40.185Z,8.70
2023-04-16T02:06:11.341Z,6.50
2023-04-16T02:08:39.805Z,6.00
2023-04-16T02:11:08.599Z,5.40
2023-04-16T02:13:37.487Z,6.90
2023-04-16T02:16:06.298Z,7.90
2023-04-16T02:18:46.537Z,7.90
2023-04-16T02:21:16.473Z,7.00
2023-04-16T02:23:47.916Z,6.70
2023-04-16T02:26:17.410Z,5.70
2023-04-16T02:28:46.434Z,8.10
2023-04-16T02:31:18.093Z,7.20
2023-04-16T02:33:47.165Z,6.60
2023-04-16T02:36:15.759Z,6.40
2023-04-16T02:38:43.892Z,6.50
2023-04-16T02:41:12.420Z,5.90
2023-04-16T02:43:41.110Z,6.40
2023-04-16T02:46:09.994Z,5.90
2023-04-16T02:48:39.203Z,7.10
2023-04-16T02:51:07.589Z,6.60
2023-04-16T02:53:36.277Z,8.60
2023-04-16T02:56:05.175Z,6.00
2023-04-16T02:58:33.877Z,5.60
2023-04-16T03:01:02.243Z,6.50
2023-04-16T03:03:30.941Z,6.00
2023-04-16T03:05:59.214Z,6.50
2023-04-16T03:08:28.624Z,7.40
2023-04-16T03:10:56.852Z,7.20
2023-04-16T03:13:26.288Z,7.30
2023-04-16T03:15:54.456Z,7.30
2023-04-16T03:18:22.952Z,7.90
2023-04-16T03:20:54.493Z,8.40
2023-04-16T03:23:23.535Z,8.20
2023-04-16T03:25:52.027Z,6.80
2023-04-16T03:28:20.615Z,9.90
2023-04-16T03:30:54.858Z,9.80
2023-04-16T03:33:23.305Z,9.30
2023-04-16T03:35:58.508Z,8.90
2023-04-16T03:38:28.769Z,8.50
2023-04-16T03:41:05.851Z,8.50
2023-04-16T03:43:34.428Z,8.70
2023-04-16T03:46:02.754Z,10.20
2023-04-16T03:48:31.186Z,10.40
2023-04-16T03:50:59.785Z,11.50
2023-04-16T03:53:28.375Z,9.30
2023-04-16T03:55:56.657Z,10.60
2023-04-16T03:58:25.544Z,10.40
2023-04-16T04:00:55.510Z,9.50
2023-04-16T04:03:24.344Z,9.10
2023-04-16T04:05:52.750Z,8.30
2023-04-16T04:08:26.966Z,8.00
2023-04-16T04:10:55.354Z,9.10
2023-04-16T04:13:24.980Z,7.80
2023-04-16T04:15:53.664Z,7.80
2023-04-16T04:18:22.455Z,6.80
2023-04-16T04:20:51.035Z,8.70
2023-04-16T04:23:21.350Z,7.30
2023-04-16T04:25:49.770Z,6.50
2023-04-16T04:28:18.237Z,6.70
2023-04-16T04:30:46.821Z,7.00
2023-04-16T04:33:15.612Z,6.20
2023-04-16T04:35:44.094Z,5.60
2023-04-16T04:38:14.297Z,5.40
2023-04-16T04:40:44.551Z,5.50
2023-04-16T04:43:12.770Z,6.20
2023-04-16T04:45:41.227Z,5.60
2023-04-16T04:48:09.474Z,5.90
2023-04-16T04:50:37.764Z,5.60
2023-04-16T04:53:10.076Z,5.40
2023-04-16T04:55:41.699Z,5.90
2023-04-16T04:58:10.514Z,5.90
2023-04-16T05:00:38.876Z,5.90
2023-04-16T05:03:11.351Z,5.20
2023-04-16T05:05:40.790Z,4.80
2023-04-16T05:08:08.999Z,5.70
2023-04-16T05:10:37.585Z,5.50
2023-04-16T05:13:05.801Z,5.20
2023-04-16T05:15:34.084Z,5.30
2023-04-16T05:18:02.447Z,5.30
2023-04-16T05:20:31.203Z,5.20
2023-04-16T05:22:59.338Z,4.70
2023-04-16T05:25:27.824Z,5.10
2023-04-16T05:27:56.099Z,4.70
2023-04-16T05:30:24.378Z,5.90
2023-04-16T05:32:52.923Z,4.90
2023-04-16T05:35:21.381Z,5.10
2023-04-16T05:37:49.944Z,4.30
2023-04-16T05:40:18.428Z,4.40
2023-04-16T05:42:46.705Z,4.50
2023-04-16T05:45:14.960Z,4.50
2023-04-16T05:47:44.828Z,4.50
2023-04-16T05:50:12.996Z,5.70
2023-04-16T05:52:41.878Z,5.10
2023-04-16T05:55:10.623Z,5.10
2023-04-16T05:57:38.852Z,4.50
2023-04-16T06:00:08.317Z,4.80
2023-04-16T06:02:42.890Z,4.70
2023-04-16T06:05:11.412Z,4.60
2023-04-16T06:07:40.060Z,4.00
2023-04-16T06:10:09.105Z,4.70
2023-04-16T06:12:37.417Z,5.60
2023-04-16T06:15:06.578Z,4.50
2023-04-16T06:17:35.366Z,4.30
2023-04-16T06:20:03.802Z,4.30
2023-04-16T06:22:33.729Z,4.60
2023-04-16T06:25:02.050Z,3.80
2023-04-16T06:27:31.518Z,4.70
2023-04-16T06:29:59.607Z,3.50
2023-04-16T06:32:27.888Z,4.20
2023-04-16T06:34:56.592Z,4.70
2023-04-16T06:37:24.831Z,4.50
2023-04-16T06:39:53.021Z,4.30
2023-04-16T06:42:21.211Z,5.10
2023-04-16T06:44:49.505Z,5.60
2023-04-16T06:47:17.826Z,4.40
2023-04-16T06:49:46.158Z,4.30
2023-04-16T06:52:15.030Z,4.00
2023-04-16T06:54:43.730Z,4.30
2023-04-16T06:57:12.049Z,4.80
2023-04-16T06:59:40.989Z,3.10
2023-04-16T07:02:10.655Z,4.20
2023-04-16T07:04:39.311Z,3.60
2023-04-16T07:07:07.580Z,3.60
2023-04-16T07:09:36.907Z,3.30
2023-04-16T07:12:07.188Z,3.50
2023-04-16T07:14:35.607Z,4.70
2023-04-16T07:17:04.193Z,3.90
2023-04-16T07:19:32.984Z,3.10
2023-04-16T07:22:01.469Z,3.70
2023-04-16T07:24:30.169Z,4.60
2023-04-16T07:26:59.064Z,3.70
2023-04-16T07:29:27.179Z,3.10
2023-04-16T07:31:55.762Z,3.60
2023-04-16T07:34:23.930Z,3.70
2023-04-16T07:36:52.183Z,3.50
2023-04-16T07:39:20.569Z,3.50
2023-04-16T07:41:48.901Z,3.10
2023-04-16T07:44:17.224Z,4.00
2023-04-16T07:46:47.405Z,3.30
2023-04-16T07:49:16.084Z,3.00
2023-04-16T07:51:44.637Z,2.70
2023-04-16T07:54:12.912Z,3.20
2023-04-16T07:56:41.400Z,3.10
2023-04-16T07:59:21.805Z,3.00
2023-04-16T08:01:52.953Z,2.40
2023-04-16T08:04:25.749Z,3.00
2023-04-16T08:06:55.996Z,2.50
2023-04-16T08:09:27.360Z,2.90
2023-04-16T08:11:55.561Z,3.50
2023-04-16T08:14:23.804Z,2.80
2023-04-16T08:16:52.415Z,3.70
2023-04-16T08:19:20.587Z,2.90
2023-04-16T08:21:49.579Z,3.20
2023-04-16T08:24:17.798Z,2.70
2023-04-16T08:26:46.040Z,2.50
2023-04-16T08:29:14.314Z,2.40
2023-04-16T08:31:42.749Z,3.00
2023-04-16T08:34:12.083Z,1.90
2023-04-16T08:36:41.633Z,2.20
2023-04-16T08:39:10.174Z,3.00
2023-04-16T08:41:41.898Z,2.20
2023-04-16T08:44:13.790Z,2.30
2023-04-16T08:46:42.058Z,2.80
2023-04-16T08:49:11.789Z,2.50
2023-04-16T08:51:40.102Z,3.00
2023-04-16T08:54:12.365Z,2.50
2023-04-16T08:56:42.479Z,2.40
2023-04-16T08:59:11.760Z,2.40
2023-04-16T09:01:42.022Z,2.40
2023-04-16T09:04:10.375Z,2.60
2023-04-16T09:06:38.855Z,2.70
2023-04-16T09:09:07.253Z,2.40
2023-04-16T09:11:35.763Z,2.30
2023-04-16T09:14:04.050Z,2.60
2023-04-16T09:16:34.094Z,3.20
2023-04-16T09:19:02.350Z,2.80
2023-04-16T09:21:31.243Z,2.80
2023-04-16T09:24:00.549Z,2.60
2023-04-16T09:26:29.566Z,2.70
2023-04-16T09:28:57.827Z,1.90
2023-04-16T09:31:26.029Z,2.40
2023-04-16T09:34:02.400Z,2.30
2023-04-16T09:36:31.672Z,2.50
2023-04-16T09:39:00.058Z,2.20
2023-04-16T09:41:33.069Z,2.40
2023-04-16T09:44:04.213Z,2.20
2023-04-16T09:46:51.328Z,2.20
2023-04-16T09:49:19.458Z,2.20
2023-04-16T09:51:49.887Z,2.10
2023-04-16T09:54:18.090Z,2.50
2023-04-16T09:56:46.989Z,2.00
2023-04-16T09:59:19.235Z,2.60
2023-04-16T10:01:49.644Z,2.40
2023-04-16T10:04:18.311Z,2.20
2023-04-16T10:07:05.612Z,2.60
2023-04-16T10:09:38.428Z,2.20
2023-04-16T10:12:07.421Z,2.10
2023-04-16T10:14:36.378Z,2.90
2023-04-16T10:17:06.248Z,2.70
2023-04-16T10:19:36.100Z,2.00
2023-04-16T10:22:04.950Z,2.00
2023-04-16T10:24:34.153Z,2.60
2023-04-16T10:27:02.824Z,2.90
2023-04-16T10:29:31.706Z,2.90
2023-04-16T10:32:00.074Z,2.40
2023-04-16T10:34:29.175Z,2.80
2023-04-16T10:36:57.767Z,2.50
2023-04-16T10:39:28.181Z,2.60
2023-04-16T10:42:12.320Z,2.20
2023-04-16T10:44:44.408Z,2.20
2023-04-16T10:47:14.144Z,2.30
2023-04-16T10:49:44.005Z,2.70
2023-04-16T10:52:14.072Z,2.10
2023-04-16T10:54:42.338Z,2.40
2023-04-16T10:57:16.391Z,2.20
2023-04-16T10:59:44.683Z,2.40
2023-04-16T11:02:19.589Z,2.00
2023-04-16T11:04:48.971Z,2.30
2023-04-16T11:07:18.752Z,2.10
2023-04-16T11:10:06.132Z,1.90
2023-04-16T11:12:41.624Z,1.90
2023-04-16T11:15:15.946Z,2.10
2023-04-16T11:17:50.624Z,2.10
2023-04-16T11:20:25.700Z,2.80
2023-04-16T11:22:56.235Z,1.60
2023-04-16T11:25:34.103Z,2.60
2023-04-16T11:28:02.726Z,2.20
2023-04-16T11:30:34.182Z,2.50
2023-04-16T11:33:06.248Z,2.70
2023-04-16T11:35:34.905Z,2.70
2023-04-16T11:38:03.215Z,2.50
2023-04-16T11:40:31.836Z,2.10
2023-04-16T11:43:14.448Z,2.10
2023-04-16T11:46:03.728Z,2.20
2023-04-16T11:48:52.841Z,1.90
2023-04-16T11:51:23.454Z,2.20
2023-04-16T11:53:56.293Z,2.20
2023-04-16T11:56:35.349Z,1.90
2023-04-16T11:59:11.540Z,2.00
2023-04-16T12:01:41.349Z,1.60
2023-04-16T12:04:09.816Z,2.20
2023-04-16T12:06:38.385Z,2.30
2023-04-16T12:09:25.659Z,2.00
2023-04-16T12:11:54.061Z,2.20
2023-04-16T12:14:23.017Z,2.10
2023-04-16T12:16:51.751Z,2.30
2023-04-16T12:19:20.193Z,2.40
2023-04-16T12:21:49.597Z,2.00
2023-04-16T12:24:24.074Z,2.60
2023-04-16T12:26:57.640Z,2.90
2023-04-16T12:29:27.569Z,2.70
2023-04-16T12:31:55.922Z,2.10
2023-04-16T12:34:48.195Z,2.40
2023-04-16T12:37:13.212Z,2.10
2023-04-16T12:39:42.153Z,2.70
2023-04-16T12:42:11.570Z,2.10
2023-04-16T12:44:39.747Z,2.30
2023-04-16T12:47:07.844Z,2.40
2023-04-16T12:49:37.778Z,2.00
2023-04-16T12:52:06.787Z,2.50
2023-04-16T12:54:35.007Z,1.80
2023-04-16T12:57:03.882Z,2.10
2023-04-16T12:59:32.193Z,2.30
2023-04-16T13:02:02.060Z,2.20
2023-04-16T13:04:30.510Z,2.00
2023-04-16T13:06:58.893Z,2.80
2023-04-16T13:09:27.457Z,2.30
2023-04-16T13:11:55.638Z,2.60
2023-04-16T13:14:24.314Z,2.40
2023-04-16T13:16:52.459Z,3.20
2023-04-16T13:19:21.300Z,2.30
2023-04-16T13:21:49.604Z,3.10
2023-04-16T13:24:17.759Z,3.20
2023-04-16T13:26:45.997Z,2.60
2023-04-16T13:29:14.243Z,2.20
2023-04-16T13:31:42.453Z,2.80
2023-04-16T13:34:11.160Z,2.80
2023-04-16T13:36:39.467Z,2.50
2023-04-16T13:39:11.661Z,2.00
2023-04-16T13:41:40.872Z,2.10
2023-04-16T13:44:09.124Z,2.20
2023-04-16T13:46:37.579Z,1.90
2023-04-16T13:49:05.991Z,2.50
2023-04-16T13:51:34.480Z,2.80
2023-04-16T13:54:03.693Z,2.80
2023-04-16T13:56:32.470Z,2.50
2023-04-16T13:59:00.851Z,2.60
2023-04-16T14:01:29.236Z,2.10
2023-04-16T14:03:57.545Z,2.40
2023-04-16T14:06:26.104Z,2.50
2023-04-16T14:08:54.599Z,2.20
2023-04-16T14:11:23.717Z,2.30
2023-04-16T14:13:52.231Z,2.00
2023-04-16T14:16:20.587Z,2.20
2023-04-16T14:18:48.920Z,2.10
2023-04-16T14:21:17.395Z,2.70
2023-04-16T14:23:45.714Z,2.80
2023-04-16T14:26:16.312Z,1.80
2023-04-16T14:28:44.731Z,2.70
2023-04-16T14:31:13.777Z,3.00
2023-04-16T14:33:42.203Z,2.40
2023-04-16T14:36:10.797Z,2.30
2023-04-16T14:38:38.868Z,2.40
2023-04-16T14:41:07.147Z,2.50
2023-04-16T14:43:36.408Z,2.30
2023-04-16T14:46:06.788Z,2.60
2023-04-16T14:48:36.424Z,2.40
2023-04-16T14:51:04.673Z,2.50
2023-04-16T14:53:34.532Z,3.10
2023-04-16T14:56:02.870Z,2.30
2023-04-16T14:58:31.730Z,2.50
2023-04-16T15:00:59.845Z,2.50
2023-04-16T15:03:28.627Z,2.50
2023-04-16T15:06:00.348Z,2.20
2023-04-16T15:08:28.724Z,3.00
2023-04-16T15:10:57.074Z,2.60
2023-04-16T15:13:33.751Z,2.60
2023-04-16T15:16:02.017Z,2.30
2023-04-16T15:18:30.804Z,2.50
2023-04-16T15:20:58.984Z,2.40
2023-04-16T15:23:27.060Z,2.80
2023-04-16T15:25:55.444Z,2.60
2023-04-16T15:28:23.935Z,2.50
2023-04-16T15:30:52.592Z,2.70
2023-04-16T15:33:21.620Z,2.90
2023-04-16T15:35:51.708Z,3.10
2023-04-16T15:38:21.564Z,2.30
2023-04-16T15:40:49.836Z,2.50
2023-04-16T15:43:17.920Z,2.90
2023-04-16T15:45:46.297Z,3.00
2023-04-16T15:48:14.649Z,2.40
2023-04-16T15:50:42.848Z,2.00
2023-04-16T15:53:11.451Z,2.80
2023-04-16T15:55:39.546Z,2.70
2023-04-16T15:58:07.822Z,2.50
2023-04-16T16:00:36.215Z,2.70
2023-04-16T16:03:04.678Z,3.10
2023-04-16T16:05:33.198Z,2.70
2023-04-16T16:08:01.930Z,2.90
2023-04-16T16:10:30.332Z,2.30
2023-04-16T16:13:02.194Z,2.70
2023-04-16T16:15:30.574Z,2.30
2023-04-16T16:17:58.876Z,2.40
2023-04-16T16:20:27.753Z,3.00
2023-04-16T16:22:56.762Z,2.90
2023-04-16T16:25:25.133Z,3.40
2023-04-16T16:27:53.320Z,2.10
2023-04-16T16:30:21.499Z,2.40
2023-04-16T16:32:49.763Z,2.50
2023-04-16T16:35:18.247Z,2.70
2023-04-16T16:37:46.418Z,2.50
2023-04-16T16:40:14.973Z,2.20
2023-04-16T16:42:43.224Z,2.80
2023-04-16T16:45:11.752Z,2.60
2023-04-16T16:47:40.811Z,2.20
2023-04-16T16:50:11.586Z,1.70
2023-04-16T16:52:40.247Z,2.20
2023-04-16T16:55:11.290Z,2.30
2023-04-16T16:57:40.114Z,2.40
2023-04-16T17:00:12.014Z,2.10
2023-04-16T17:02:41.214Z,2.30
2023-04-16T17:05:10.081Z,2.50
2023-04-16T17:07:39.770Z,2.40
2023-04-16T17:10:11.214Z,2.90
2023-04-16T17:12:40.176Z,2.60
2023-04-16T17:15:09.051Z,2.60
2023-04-16T17:17:37.999Z,2.60
2023-04-16T17:20:09.703Z,3.70
2023-04-16T17:22:39.752Z,2.60
2023-04-16T17:25:08.509Z,2.60
2023-04-16T17:27:36.996Z,2.90
2023-04-16T17:30:06.764Z,2.40
2023-04-16T17:32:35.289Z,2.90
2023-04-16T17:35:04.510Z,2.90
2023-04-16T17:37:33.432Z,2.60
2023-04-16T17:40:01.698Z,3.70
2023-04-16T17:42:30.405Z,2.50
2023-04-16T17:44:58.575Z,2.60
2023-04-16T17:47:26.860Z,3.10
2023-04-16T17:49:55.561Z,3.10
2023-04-16T17:52:24.023Z,2.50
2023-04-16T17:54:53.360Z,2.50
2023-04-16T17:57:21.526Z,2.40
2023-04-16T17:59:49.795Z,2.90
2023-04-16T18:02:18.269Z,2.20
2023-04-16T18:04:47.132Z,2.70
2023-04-16T18:07:15.437Z,2.70
2023-04-16T18:09:44.549Z,2.20
2023-04-16T18:12:12.869Z,2.50
2023-04-16T18:14:44.791Z,2.60
2023-04-16T18:17:13.274Z,2.40
2023-04-16T18:19:43.906Z,2.10
2023-04-16T18:22:13.428Z,2.60
2023-04-16T18:24:41.509Z,2.30
2023-04-16T18:27:09.770Z,2.40
2023-04-16T18:29:39.898Z,3.10
2023-04-16T18:32:11.673Z,2.40
2023-04-16T18:34:40.766Z,2.60
2023-04-16T18:37:08.953Z,2.70
2023-04-16T18:39:37.549Z,2.10
2023-04-16T18:42:06.418Z,2.90
2023-04-16T18:44:35.309Z,2.20
2023-04-16T18:47:03.855Z,2.80
2023-04-16T18:49:32.893Z,2.00
2023-04-16T18:52:01.937Z,2.30
2023-04-16T18:54:30.680Z,1.70
2023-04-16T18:57:00.410Z,2.70
2023-04-16T18:59:29.492Z,2.30
2023-04-16T19:01:57.618Z,2.40
2023-04-16T19:04:26.003Z,2.80
2023-04-16T19:06:54.120Z,2.60
2023-04-16T19:09:22.621Z,1.90
2023-04-16T19:11:51.117Z,3.10
2023-04-16T19:14:20.143Z,2.80
2023-04-16T19:16:48.564Z,2.60
2023-04-16T19:19:17.422Z,2.20
2023-04-16T19:21:45.969Z,3.40
2023-04-16T19:24:14.118Z,3.10
2023-04-16T19:26:42.432Z,2.60
2023-04-16T19:29:10.959Z,2.40
2023-04-16T19:31:39.577Z,2.40
2023-04-16T19:34:07.987Z,2.20
2023-04-16T19:36:36.358Z,2.40
2023-04-16T19:39:04.996Z,2.20
2023-04-16T19:41:33.497Z,2.40
2023-04-16T19:44:01.847Z,2.40
2023-04-16T19:46:30.420Z,2.30
2023-04-16T19:48:58.607Z,2.40
2023-04-16T19:51:27.399Z,2.10
2023-04-16T19:53:56.130Z,2.60
2023-04-16T19:56:24.586Z,2.00
2023-04-16T19:58:52.949Z,2.30
2023-04-16T20:01:21.151Z,2.00
2023-04-16T20:03:49.656Z,2.10
2023-04-16T20:06:18.105Z,2.50
2023-04-16T20:08:46.719Z,2.80
2023-04-16T20:11:15.785Z,2.70
2023-04-16T20:13:47.777Z,2.90
2023-04-16T20:16:17.605Z,2.90
2023-04-16T20:18:46.203Z,2.30
2023-04-16T20:21:14.427Z,2.20
2023-04-16T20:23:42.826Z,3.10
2023-04-16T20:26:14.637Z,3.20
2023-04-16T20:28:42.951Z,3.10
2023-04-16T20:31:12.005Z,2.20
2023-04-16T20:33:40.307Z,2.50
2023-04-16T20:36:08.714Z,2.60
2023-04-16T20:38:37.715Z,2.10
2023-04-16T20:41:10.374Z,2.70
2023-04-16T20:43:42.215Z,2.20
2023-04-16T20:46:11.403Z,3.10
2023-04-16T20:48:39.857Z,3.30
2023-04-16T20:51:09.585Z,2.80
2023-04-16T20:53:38.438Z,2.40
2023-04-16T20:56:07.076Z,2.60
2023-04-16T20:58:35.657Z,2.50
2023-04-16T21:01:06.108Z,2.20
2023-04-16T21:03:34.586Z,2.20
2023-04-16T21:06:03.965Z,1.90
2023-04-16T21:08:32.197Z,2.20
2023-04-16T21:11:00.820Z,2.70
2023-04-16T21:13:29.280Z,2.20
2023-04-16T21:15:57.503Z,2.50
2023-04-16T21:18:26.192Z,1.90
2023-04-16T21:20:54.355Z,2.40
2023-04-16T21:23:22.536Z,2.20
2023-04-16T21:25:50.912Z,2.60
2023-04-16T21:28:19.606Z,1.90
2023-04-16T21:30:51.801Z,2.20
2023-04-16T21:33:21.733Z,2.60
2023-04-16T21:35:53.554Z,2.40
2023-04-16T21:38:22.552Z,2.40
2023-04-16T21:40:53.853Z,1.90
2023-04-16T21:43:24.640Z,2.30
2023-04-16T21:45:53.734Z,2.10
2023-04-16T21:48:22.326Z,2.40
2023-04-16T21:50:58.245Z,1.80
2023-04-16T21:53:28.177Z,2.60
2023-04-16T21:55:56.391Z,1.90
2023-04-16T21:58:25.989Z,2.40
2023-04-16T22:00:54.311Z,2.80
2023-04-16T22:03:26.735Z,2.60
2023-04-16T22:06:01.682Z,3.00
2023-04-16T22:08:31.101Z,2.90
2023-04-16T22:11:01.698Z,3.00
2023-04-16T22:13:36.597Z,2.40
2023-04-16T22:16:05.877Z,3.30
2023-04-16T22:18:34.242Z,2.10
2023-04-16T22:21:02.922Z,2.70
2023-04-16T22:23:31.450Z,2.20
2023-04-16T22:25:59.897Z,1.90
2023-04-16T22:28:28.248Z,3.30
2023-04-16T22:30:57.067Z,2.70
2023-04-16T22:33:25.455Z,2.40
2023-04-16T22:35:53.631Z,3.10
2023-04-16T22:38:22.710Z,3.90
2023-04-16T22:40:51.157Z,3.20
2023-04-16T22:43:20.222Z,3.10
2023-04-16T22:45:48.851Z,3.50
2023-04-16T22:48:17.487Z,3.40
2023-04-16T22:50:48.550Z,2.50
2023-04-16T22:53:17.435Z,2.90
2023-04-16T22:55:45.610Z,2.50
2023-04-16T22:58:13.827Z,2.60
2023-04-16T23:00:42.092Z,3.00
2023-04-16T23:03:10.631Z,2.80
2023-04-16T23:05:38.779Z,2.50
2023-04-16T23:08:07.121Z,2.50
2023-04-16T23:10:36.459Z,3.00
2023-04-16T23:13:05.218Z,2.80
2023-04-16T23:15:33.404Z,2.80
2023-04-16T23:18:01.902Z,3.00
2023-04-16T23:20:30.671Z,2.70
2023-04-16T23:22:58.958Z,3.20
2023-04-16T23:25:27.332Z,3.70
2023-04-16T23:27:56.841Z,2.70
2023-04-16T23:30:25.118Z,3.10
2023-04-16T23:32:53.375Z,2.60
2023-04-16T23:35:22.990Z,3.00
2023-04-16T23:37:51.724Z,2.90
2023-04-16T23:40:19.880Z,3.50
2023-04-16T23:42:48.366Z,2.80
2023-04-16T23:45:16.513Z,3.60
2023-04-16T23:47:45.001Z,4.10
2023-04-16T23:50:13.633Z,3.30
2023-04-16T23:52:42.043Z,3.20
2023-04-16T23:55:10.284Z,3.30
2023-04-16T23:57:39.174Z,3.10
